Time;durP1;ratioP1;P1;durP2;ratioP2;P2;SDS_P1;SDS_P2;PMS_P1;PMS_P2;Temp;Humidity;BMP_temperature;BMP_pressure;BME280_temperature;BME280_humidity;BME280_pressure;Samples;Min_cycle;Max_cycle;Signal;HPM_P1;HPM_P2
2022/11/05 00:39:13;;;;;;;5.90;3.80;;;;;;;;;;4930096;29;20461;-93
2022/11/05 01:07:57;;;;;;;4.60;3.20;;;;;;;;;;4965100;28;20515;-93
2022/11/05 01:14:52;;;;;;;4.33;2.60;;;;;;;;;;4922779;28;20473;-92
2022/11/05 01:45:56;;;;;;;6.17;3.00;;;;;;;;;;4919206;29;20493;-93
2022/11/05 01:56:39;;;;;;;4.77;2.90;;;;;;;;;;4867343;29;20502;-92
2022/11/05 01:59:45;;;;;;;3.97;3.37;;;;;;;;;;4868355;29;21011;-92
2022/11/05 02:02:59;;;;;;;6.80;3.20;;;;;;;;;;4867259;29;20573;-92
2022/11/05 02:24:48;;;;;;;6.17;3.30;;;;;;;;;;4901438;29;21296;-92
2022/11/05 02:35:33;;;;;;;6.00;3.60;;;;;;;;;;4918604;29;20457;-93
2022/11/05 03:08:08;;;;;;;5.77;4.20;;;;;;;;;;4845344;29;20469;-93
2022/11/05 03:14:52;;;;;;;5.87;4.03;;;;;;;;;;4850215;29;20526;-92
2022/11/05 03:21:23;;;;;;;7.30;4.53;;;;;;;;;;4848002;29;20492;-93
2022/11/05 03:37:12;;;;;;;7.03;4.20;;;;;;;;;;4928479;29;20488;-93
2022/11/05 03:48:00;;;;;;;6.40;4.27;;;;;;;;;;4930307;29;20462;-93
2022/11/05 03:54:56;;;;;;;4.97;3.80;;;;;;;;;;4924338;29;20474;-93
2022/11/05 04:43:31;;;;;;;8.47;4.23;;;;;;;;;;4969091;29;20447;-94
2022/11/05 04:46:48;;;;;;;6.70;4.30;;;;;;;;;;4968640;28;20502;-94
2022/11/05 04:53:23;;;;;;;6.13;4.40;;;;;;;;;;4959640;28;20475;-93
2022/11/05 06:17:30;;;;;;;6.67;5.00;;;;;;;;;;4964150;28;20495;-91
2022/11/05 06:23:40;;;;;;;7.07;5.60;;;;;;;;;;4963249;28;20444;-93
2022/11/05 06:26:34;;;;;;;5.07;4.50;;;;;;;;;;4974619;28;20579;-92
2022/11/05 06:29:37;;;;;;;6.47;5.00;;;;;;;;;;4966723;28;20443;-93
2022/11/05 06:32:32;;;;;;;5.13;4.63;;;;;;;;;;4970131;28;20448;-92
2022/11/05 06:35:34;;;;;;;7.53;5.17;;;;;;;;;;5140904;27;21078;-90
2022/11/05 06:38:28;;;;;;;6.77;4.53;;;;;;;;;;5132038;27;20455;-91
2022/11/05 06:41:25;;;;;;;5.77;5.17;;;;;;;;;;5142248;27;20473;-89
2022/11/05 06:44:30;;;;;;;6.13;4.80;;;;;;;;;;5148855;27;20478;-90
2022/11/05 06:47:36;;;;;;;6.93;5.13;;;;;;;;;;5096775;22;20512;-70
2022/11/05 06:50:27;;;;;;;6.40;4.50;;;;;;;;;;5066298;22;20593;-72
2022/11/05 06:53:17;;;;;;;6.57;5.17;;;;;;;;;;5074638;28;21077;-73
2022/11/05 06:56:17;;;;;;;6.50;5.43;;;;;;;;;;5078901;28;20464;-72
2022/11/05 06:59:11;;;;;;;6.93;5.00;;;;;;;;;;5079610;28;20458;-72
2022/11/05 07:02:00;;;;;;;9.60;5.87;;;;;;;;;;5072039;28;20469;-73
2022/11/05 07:04:48;;;;;;;9.07;5.57;;;;;;;;;;5042486;28;20477;-73
2022/11/05 07:07:39;;;;;;;7.03;5.83;;;;;;;;;;5067260;28;20465;-71
2022/11/05 07:10:29;;;;;;;6.50;5.63;;;;;;;;;;5079054;28;20876;-73
2022/11/05 07:13:17;;;;;;;6.20;5.40;;;;;;;;;;5089740;28;20464;-72
2022/11/05 07:17:09;;;;;;;9.33;5.67;;;;;;;;;;5114092;27;20587;-72
2022/11/05 07:19:59;;;;;;;8.40;5.53;;;;;;;;;;4967173;27;20497;-72
2022/11/05 07:22:47;;;;;;;5.83;5.30;;;;;;;;;;5054200;28;20481;-73
2022/11/05 07:25:36;;;;;;;6.13;5.20;;;;;;;;;;5044441;28;20474;-73
2022/11/05 07:28:27;;;;;;;8.40;5.60;;;;;;;;;;5035816;28;20482;-72
2022/11/05 07:31:16;;;;;;;6.77;5.93;;;;;;;;;;5034216;28;21245;-73
2022/11/05 07:34:06;;;;;;;7.07;5.30;;;;;;;;;;5025027;28;20581;-72
2022/11/05 07:36:54;;;;;;;6.10;5.50;;;;;;;;;;5022507;28;20483;-72
2022/11/05 07:39:45;;;;;;;6.93;5.03;;;;;;;;;;5026789;28;20474;-72
2022/11/05 07:42:36;;;;;;;7.03;5.30;;;;;;;;;;5022981;28;22120;-73
2022/11/05 07:45:26;;;;;;;6.27;5.77;;;;;;;;;;5037598;28;20532;-73
2022/11/05 07:48:15;;;;;;;6.60;4.87;;;;;;;;;;5033535;28;20556;-73
2022/11/05 07:51:05;;;;;;;10.50;6.17;;;;;;;;;;5039982;28;20478;-73
2022/11/05 07:53:53;;;;;;;5.60;4.77;;;;;;;;;;5056525;28;20523;-73
2022/11/05 07:56:42;;;;;;;8.00;4.83;;;;;;;;;;5040238;28;20510;-73
2022/11/05 07:59:30;;;;;;;6.60;4.63;;;;;;;;;;5058684;28;20485;-73
2022/11/05 08:02:19;;;;;;;5.23;4.13;;;;;;;;;;5055693;28;21023;-72
2022/11/05 08:05:08;;;;;;;7.33;4.73;;;;;;;;;;5053746;28;20986;-73
2022/11/05 08:07:58;;;;;;;6.43;5.10;;;;;;;;;;5054277;28;20572;-72
2022/11/05 08:10:47;;;;;;;8.00;4.47;;;;;;;;;;5079500;28;21018;-73
2022/11/05 08:13:36;;;;;;;5.77;4.10;;;;;;;;;;5077802;28;20476;-73
2022/11/05 08:16:25;;;;;;;8.57;4.40;;;;;;;;;;5093870;28;20513;-73
2022/11/05 08:19:13;;;;;;;6.77;5.00;;;;;;;;;;5094709;28;20460;-73
2022/11/05 08:22:02;;;;;;;5.53;4.83;;;;;;;;;;5081418;28;20496;-72
2022/11/05 08:24:52;;;;;;;5.63;4.80;;;;;;;;;;5087422;28;20844;-73
2022/11/05 08:27:40;;;;;;;7.27;5.00;;;;;;;;;;5087346;28;21020;-72
2022/11/05 08:30:30;;;;;;;7.30;4.50;;;;;;;;;;5068081;28;21140;-72
2022/11/05 08:33:19;;;;;;;7.80;4.63;;;;;;;;;;5069983;28;20476;-72
2022/11/05 08:36:08;;;;;;;5.53;4.20;;;;;;;;;;5063815;28;20485;-72
2022/11/05 08:38:56;;;;;;;8.53;4.77;;;;;;;;;;5066494;28;20857;-73
2022/11/05 08:41:46;;;;;;;8.20;4.17;;;;;;;;;;5068689;28;20488;-73
2022/11/05 08:44:35;;;;;;;6.10;4.43;;;;;;;;;;5076945;28;20481;-73
2022/11/05 08:47:24;;;;;;;5.93;4.17;;;;;;;;;;5055843;28;20473;-73
2022/11/05 08:50:15;;;;;;;6.90;4.27;;;;;;;;;;5052261;28;20527;-73
2022/11/05 08:53:04;;;;;;;5.40;4.13;;;;;;;;;;5058293;28;20995;-73
2022/11/05 08:55:52;;;;;;;6.90;4.17;;;;;;;;;;5068110;28;20558;-73
2022/11/05 08:58:42;;;;;;;5.87;3.67;;;;;;;;;;5070394;28;20481;-73
2022/11/05 09:01:30;;;;;;;5.37;4.20;;;;;;;;;;5063066;28;20493;-73
2022/11/05 09:04:19;;;;;;;9.20;5.33;;;;;;;;;;5059043;28;20484;-73
2022/11/05 09:07:08;;;;;;;4.97;3.90;;;;;;;;;;5062689;28;20840;-73
2022/11/05 09:09:56;;;;;;;6.33;4.47;;;;;;;;;;5069670;28;20534;-73
2022/11/05 09:12:45;;;;;;;6.00;3.80;;;;;;;;;;5078166;28;20472;-73
2022/11/05 09:15:35;;;;;;;6.33;3.90;;;;;;;;;;5068819;28;20462;-72
2022/11/05 09:18:24;;;;;;;6.73;4.27;;;;;;;;;;5054365;28;20999;-72
2022/11/05 09:21:12;;;;;;;5.13;3.47;;;;;;;;;;5039953;28;20512;-73
2022/11/05 09:24:01;;;;;;;8.40;3.97;;;;;;;;;;5054420;28;20477;-73
2022/11/05 09:26:49;;;;;;;3.57;3.27;;;;;;;;;;5069720;28;20497;-72
2022/11/05 09:29:38;;;;;;;6.60;3.73;;;;;;;;;;5064426;28;20481;-73
2022/11/05 09:32:28;;;;;;;5.93;4.13;;;;;;;;;;5052236;28;20543;-73
2022/11/05 09:35:16;;;;;;;6.03;4.13;;;;;;;;;;5068400;28;20525;-73
2022/11/05 09:38:08;;;;;;;4.10;3.20;;;;;;;;;;5067741;28;20486;-74
2022/11/05 09:40:59;;;;;;;4.80;4.10;;;;;;;;;;5060640;28;20542;-73
2022/11/05 09:43:49;;;;;;;3.73;3.00;;;;;;;;;;5068920;28;20488;-73
2022/11/05 09:46:41;;;;;;;6.00;3.40;;;;;;;;;;5065600;28;20508;-73
2022/11/05 09:49:34;;;;;;;7.60;3.17;;;;;;;;;;5070331;28;20485;-73
2022/11/05 09:52:24;;;;;;;5.67;3.10;;;;;;;;;;5066679;28;20485;-73
2022/11/05 09:55:19;;;;;;;7.00;3.20;;;;;;;;;;5044030;28;20485;-73
2022/11/05 09:58:15;;;;;;;5.53;3.10;;;;;;;;;;5050604;28;20504;-73
2022/11/05 10:01:05;;;;;;;5.03;3.17;;;;;;;;;;5050375;28;20484;-73
2022/11/05 10:03:55;;;;;;;5.80;3.17;;;;;;;;;;5051718;28;20576;-73
2022/11/05 10:06:46;;;;;;;5.10;3.47;;;;;;;;;;5051209;28;20477;-73
2022/11/05 10:09:37;;;;;;;7.40;3.43;;;;;;;;;;5056205;28;20999;-73
2022/11/05 10:12:29;;;;;;;4.97;2.70;;;;;;;;;;5045334;28;20596;-73
2022/11/05 10:15:20;;;;;;;4.50;3.17;;;;;;;;;;5053677;28;20500;-73
2022/11/05 10:18:12;;;;;;;5.50;3.60;;;;;;;;;;5052635;28;21011;-73
2022/11/05 10:21:01;;;;;;;3.93;2.93;;;;;;;;;;5061185;28;20469;-73
2022/11/05 10:23:51;;;;;;;4.97;3.03;;;;;;;;;;5071452;28;20506;-73
2022/11/05 10:26:40;;;;;;;5.30;2.67;;;;;;;;;;5040382;28;21363;-73
2022/11/05 10:29:31;;;;;;;6.23;3.00;;;;;;;;;;5051630;28;21000;-73
2022/11/05 10:32:24;;;;;;;4.83;2.93;;;;;;;;;;5054950;28;20476;-73
2022/11/05 10:35:15;;;;;;;2.90;2.50;;;;;;;;;;5060963;28;20792;-73
2022/11/05 10:38:04;;;;;;;3.93;2.50;;;;;;;;;;5068836;28;20511;-74
2022/11/05 10:40:58;;;;;;;2.70;2.50;;;;;;;;;;5072851;28;20481;-73
2022/11/05 10:43:49;;;;;;;3.60;2.63;;;;;;;;;;5070325;28;20441;-73
2022/11/05 10:46:40;;;;;;;3.83;2.80;;;;;;;;;;5055575;28;20476;-74
2022/11/05 10:49:37;;;;;;;3.10;2.60;;;;;;;;;;5049899;28;20499;-73
2022/11/05 10:52:28;;;;;;;3.70;2.80;;;;;;;;;;5041665;28;20492;-73
2022/11/05 10:55:19;;;;;;;2.97;2.70;;;;;;;;;;5054108;28;20481;-73
2022/11/05 10:58:10;;;;;;;3.80;2.63;;;;;;;;;;5069490;28;20992;-73
2022/11/05 11:01:04;;;;;;;4.67;2.90;;;;;;;;;;5066778;28;20477;-73
2022/11/05 11:04:04;;;;;;;4.80;2.70;;;;;;;;;;5060787;28;20563;-73
2022/11/05 11:06:53;;;;;;;6.80;3.30;;;;;;;;;;5069099;28;20467;-73
2022/11/05 11:09:47;;;;;;;3.47;2.40;;;;;;;;;;5065598;28;20473;-73
2022/11/05 11:12:38;;;;;;;4.23;2.87;;;;;;;;;;5061676;28;20564;-73
2022/11/05 11:15:32;;;;;;;2.93;2.50;;;;;;;;;;5064647;28;20488;-73
2022/11/05 11:18:25;;;;;;;3.63;2.70;;;;;;;;;;5062430;28;21018;-73
2022/11/05 11:21:15;;;;;;;5.00;2.70;;;;;;;;;;5045564;28;20540;-74
2022/11/05 11:24:05;;;;;;;4.97;2.53;;;;;;;;;;5046036;28;22044;-73
2022/11/05 11:26:54;;;;;;;6.70;2.83;;;;;;;;;;5056669;28;20509;-73
2022/11/05 11:29:45;;;;;;;2.63;2.30;;;;;;;;;;5056404;28;20473;-74
2022/11/05 11:32:39;;;;;;;2.53;2.23;;;;;;;;;;5043941;28;20488;-73
2022/11/05 11:35:28;;;;;;;3.47;2.27;;;;;;;;;;5058129;28;20586;-74
2022/11/05 11:38:19;;;;;;;3.07;1.90;;;;;;;;;;5036513;28;20614;-72
2022/11/05 11:41:19;;;;;;;2.90;1.77;;;;;;;;;;5057212;28;20485;-71
2022/11/05 11:44:13;;;;;;;3.77;2.40;;;;;;;;;;5063820;28;20482;-72
2022/11/05 11:47:03;;;;;;;3.13;1.80;;;;;;;;;;5053684;28;20488;-72
2022/11/05 11:49:54;;;;;;;2.83;1.50;;;;;;;;;;5035569;28;20484;-71
2022/11/05 11:52:43;;;;;;;1.93;1.63;;;;;;;;;;5060592;28;20504;-72
2022/11/05 11:55:32;;;;;;;2.07;1.87;;;;;;;;;;5070847;28;20450;-72
2022/11/05 11:58:20;;;;;;;2.73;1.70;;;;;;;;;;5061338;28;20488;-72
2022/11/05 12:01:36;;;;;;;2.63;2.00;;;;;;;;;;5054787;28;20488;-72
2022/11/05 12:04:28;;;;;;;2.53;1.97;;;;;;;;;;5045587;28;20479;-72
2022/11/05 12:07:28;;;;;;;3.23;2.30;;;;;;;;;;5052193;28;20517;-72
2022/11/05 12:10:27;;;;;;;2.40;2.20;;;;;;;;;;5064725;28;20858;-71
2022/11/05 12:13:34;;;;;;;2.40;2.20;;;;;;;;;;5065398;28;20481;-72
2022/11/05 12:16:27;;;;;;;1.77;1.63;;;;;;;;;;5071318;28;20842;-72
2022/11/05 12:19:22;;;;;;;3.03;2.30;;;;;;;;;;5058925;28;20500;-74
2022/11/05 12:22:17;;;;;;;3.93;2.00;;;;;;;;;;5064693;28;20593;-74
2022/11/05 12:25:19;;;;;;;2.70;1.87;;;;;;;;;;5064429;28;20510;-75
2022/11/05 12:28:23;;;;;;;2.47;2.13;;;;;;;;;;5057249;28;20464;-74
2022/11/05 12:31:22;;;;;;;1.92;1.80;;;;;;;;;;5052083;28;20476;-74
2022/11/05 12:34:21;;;;;;;2.80;2.00;;;;;;;;;;5056482;28;20646;-74
2022/11/05 12:37:13;;;;;;;2.58;1.92;;;;;;;;;;5071134;28;20209;-75
2022/11/05 12:40:09;;;;;;;2.22;1.95;;;;;;;;;;5065789;28;20227;-74
2022/11/05 12:43:04;;;;;;;2.28;2.08;;;;;;;;;;5046242;28;20275;-74
2022/11/05 12:46:03;;;;;;;2.45;1.90;;;;;;;;;;5043551;28;20222;-74
2022/11/05 12:49:05;;;;;;;2.25;2.05;;;;;;;;;;5035823;28;20235;-74
2022/11/05 12:52:00;;;;;;;2.17;1.95;;;;;;;;;;5057449;28;20230;-73
2022/11/05 12:54:54;;;;;;;3.08;2.10;;;;;;;;;;5038570;28;20222;-74
2022/11/05 12:57:44;;;;;;;2.00;1.80;;;;;;;;;;5047611;28;20233;-74
2022/11/05 13:00:40;;;;;;;2.50;2.00;;;;;;;;;;5063163;28;20239;-74
2022/11/05 13:03:34;;;;;;;2.67;2.47;;;;;;;;;;5052011;28;20514;-74
2022/11/05 13:06:25;;;;;;;2.40;2.20;;;;;;;;;;5041427;28;20571;-73
2022/11/05 13:09:15;;;;;;;2.73;1.93;;;;;;;;;;5051652;28;20583;-73
2022/11/05 13:12:07;;;;;;;2.50;2.30;;;;;;;;;;5055966;28;20477;-72
2022/11/05 13:14:59;;;;;;;2.23;2.13;;;;;;;;;;5060043;28;20484;-73
2022/11/05 13:17:52;;;;;;;2.00;1.80;;;;;;;;;;5068516;28;20474;-72
2022/11/05 13:20:42;;;;;;;2.27;2.10;;;;;;;;;;5073223;28;20473;-72
2022/11/05 13:23:34;;;;;;;3.40;2.63;;;;;;;;;;5073682;28;20458;-73
2022/11/05 13:26:29;;;;;;;2.77;2.57;;;;;;;;;;5061108;28;20461;-73
2022/11/05 13:29:20;;;;;;;3.87;2.60;;;;;;;;;;5059129;28;20584;-73
2022/11/05 13:32:13;;;;;;;3.77;2.20;;;;;;;;;;5055021;28;20493;-73
2022/11/05 13:35:06;;;;;;;2.63;2.10;;;;;;;;;;5053208;28;20575;-73
2022/11/05 13:41:12;;;;;;;3.30;2.40;;;;;;;;;;5065924;28;21198;-75
2022/11/05 13:44:17;;;;;;;4.00;2.70;;;;;;;;;;5040064;28;20515;-72
2022/11/05 13:47:16;;;;;;;5.17;3.07;;;;;;;;;;5057500;28;20533;-73
2022/11/05 13:50:27;;;;;;;3.60;2.80;;;;;;;;;;5057082;28;20461;-72
2022/11/05 13:53:31;;;;;;;4.97;2.83;;;;;;;;;;5058331;28;20496;-75
2022/11/05 13:56:34;;;;;;;5.97;5.37;;;;;;;;;;5028583;28;20571;-73
2022/11/05 13:59:30;;;;;;;4.03;3.63;;;;;;;;;;5055324;28;21670;-72
2022/11/05 14:02:21;;;;;;;4.40;3.50;;;;;;;;;;5054358;28;20588;-73
2022/11/05 14:05:28;;;;;;;3.73;3.10;;;;;;;;;;5054113;28;20622;-73
2022/11/05 14:08:21;;;;;;;3.60;2.80;;;;;;;;;;5052934;28;20846;-73
2022/11/05 14:11:29;;;;;;;;;;;;;;;;;;;;;
2022/11/05 14:14:19;;;;;;;4.77;3.90;;;;;;;;;;5055572;28;20488;-74
2022/11/05 14:17:18;;;;;;;3.40;3.10;;;;;;;;;;5067539;28;20473;-73
2022/11/05 14:20:08;;;;;;;3.90;3.50;;;;;;;;;;5073541;28;20506;-73
2022/11/05 14:23:24;;;;;;;4.97;3.30;;;;;;;;;;5075855;28;20481;-73
2022/11/05 14:26:22;;;;;;;4.00;3.20;;;;;;;;;;5066391;28;21036;-73
2022/11/05 14:29:28;;;;;;;3.47;3.17;;;;;;;;;;5067559;28;20458;-73
2022/11/05 14:32:27;;;;;;;3.83;3.17;;;;;;;;;;5063531;28;20477;-73
2022/11/05 14:35:34;;;;;;;4.20;3.53;;;;;;;;;;5050328;28;21095;-73
2022/11/05 14:38:24;;;;;;;3.97;3.57;;;;;;;;;;5054548;28;20492;-73
2022/11/05 14:41:13;;;;;;;3.57;3.27;;;;;;;;;;5060832;28;21269;-73
2022/11/05 14:44:11;;;;;;;3.80;3.40;;;;;;;;;;5066060;28;20475;-73
2022/11/05 14:47:01;;;;;;;5.87;3.40;;;;;;;;;;5043854;28;20474;-74
2022/11/05 14:49:53;;;;;;;4.50;3.47;;;;;;;;;;5051622;28;20494;-73
2022/11/05 14:52:50;;;;;;;3.90;3.50;;;;;;;;;;5051118;28;20486;-73
2022/11/05 14:55:40;;;;;;;4.47;4.00;;;;;;;;;;5050793;28;20520;-73
2022/11/05 14:58:34;;;;;;;4.83;3.47;;;;;;;;;;5047872;28;20489;-73
2022/11/05 15:01:37;;;;;;;4.40;3.60;;;;;;;;;;5060430;28;20477;-74
2022/11/05 15:04:30;;;;;;;6.03;3.73;;;;;;;;;;5063733;28;20985;-73
2022/11/05 15:07:34;;;;;;;3.70;3.40;;;;;;;;;;5056822;28;20482;-73
2022/11/05 15:10:26;;;;;;;5.17;4.10;;;;;;;;;;5058882;28;20934;-73
2022/11/05 15:13:24;;;;;;;6.80;4.33;;;;;;;;;;5056403;28;20481;-72
2022/11/05 15:16:16;;;;;;;4.90;3.87;;;;;;;;;;5042606;28;20488;-73
2022/11/05 15:19:07;;;;;;;5.63;3.93;;;;;;;;;;5065736;28;21000;-73
2022/11/05 15:22:03;;;;;;;5.10;4.03;;;;;;;;;;5055790;28;20508;-73
2022/11/05 15:24:53;;;;;;;5.17;4.13;;;;;;;;;;5051633;28;20838;-73
2022/11/05 15:27:50;;;;;;;4.40;4.00;;;;;;;;;;5063354;28;20603;-73
2022/11/05 15:30:39;;;;;;;4.80;4.20;;;;;;;;;;5049809;28;21616;-72
2022/11/05 15:33:28;;;;;;;22.03;14.10;;;;;;;;;;5066044;28;20469;-73
2022/11/05 15:36:21;;;;;;;7.90;6.20;;;;;;;;;;5061061;28;20461;-73
2022/11/05 15:39:21;;;;;;;6.50;4.87;;;;;;;;;;5070681;28;20566;-73
2022/11/05 15:42:18;;;;;;;7.90;7.10;;;;;;;;;;5074672;28;20517;-73
2022/11/05 15:45:21;;;;;;;7.07;6.30;;;;;;;;;;5065961;28;20461;-73
2022/11/05 15:48:14;;;;;;;12.47;11.20;;;;;;;;;;5058033;28;20569;-72
2022/11/05 15:51:05;;;;;;;10.10;9.03;;;;;;;;;;5057223;28;21444;-73
2022/11/05 15:53:57;;;;;;;9.03;8.13;;;;;;;;;;5063581;28;21016;-73
2022/11/05 15:57:15;;;;;;;22.60;19.20;;;;;;;;;;5052895;28;20504;-73
2022/11/05 16:00:05;;;;;;;27.80;19.53;;;;;;;;;;5045937;28;21067;-74
2022/11/05 16:02:57;;;;;;;24.90;17.70;;;;;;;;;;5048022;28;21507;-76
2022/11/05 16:05:48;;;;;;;32.43;23.00;;;;;;;;;;5056075;28;20482;-73
2022/11/05 16:08:37;;;;;;;39.20;26.10;;;;;;;;;;5056788;28;20588;-73
2022/11/05 16:11:28;;;;;;;108.93;63.30;;;;;;;;;;5067835;28;21340;-72
2022/11/05 16:14:20;;;;;;;65.53;40.20;;;;;;;;;;5063978;28;20979;-73
2022/11/05 16:17:22;;;;;;;34.53;23.90;;;;;;;;;;5073158;28;20481;-73
2022/11/05 16:20:19;;;;;;;77.37;45.57;;;;;;;;;;5071709;28;21042;-73
2022/11/05 16:23:08;;;;;;;54.60;35.97;;;;;;;;;;5080955;28;20453;-73
2022/11/05 16:25:57;;;;;;;58.77;36.70;;;;;;;;;;5070169;28;20502;-73
2022/11/05 16:28:53;;;;;;;25.50;16.97;;;;;;;;;;5066710;28;20488;-73
2022/11/05 16:31:49;;;;;;;44.40;29.40;;;;;;;;;;5068541;28;20476;-73
2022/11/05 16:34:40;;;;;;;42.97;26.37;;;;;;;;;;5071619;28;20473;-72
2022/11/05 16:37:30;;;;;;;58.73;35.23;;;;;;;;;;5062933;28;20527;-72
2022/11/05 16:40:20;;;;;;;97.17;53.37;;;;;;;;;;5056600;28;20480;-72
2022/11/05 16:43:10;;;;;;;57.97;33.40;;;;;;;;;;5055883;28;20492;-73
2022/11/05 16:46:01;;;;;;;65.50;38.70;;;;;;;;;;5063848;28;20788;-73
2022/11/05 16:48:55;;;;;;;60.33;35.80;;;;;;;;;;5070289;28;20480;-73
2022/11/05 16:51:46;;;;;;;47.80;29.80;;;;;;;;;;5053931;28;20541;-73
2022/11/05 16:54:35;;;;;;;147.13;80.47;;;;;;;;;;5058904;28;20472;-73
2022/11/05 16:57:27;;;;;;;118.23;69.53;;;;;;;;;;5044577;28;20567;-73
2022/11/05 17:00:17;;;;;;;64.73;40.27;;;;;;;;;;5055733;28;20474;-72
2022/11/05 17:03:06;;;;;;;37.10;24.27;;;;;;;;;;5065109;28;20515;-73
2022/11/05 17:05:56;;;;;;;16.80;13.50;;;;;;;;;;5055096;28;20610;-72
2022/11/05 17:08:44;;;;;;;19.13;14.60;;;;;;;;;;5065640;28;20489;-73
2022/11/05 17:11:33;;;;;;;20.67;16.07;;;;;;;;;;5060340;28;21466;-73
2022/11/05 17:14:22;;;;;;;9.80;8.80;;;;;;;;;;5062959;28;20464;-73
2022/11/05 17:17:13;;;;;;;17.03;11.63;;;;;;;;;;5073065;28;20577;-73
2022/11/05 17:20:03;;;;;;;13.97;9.60;;;;;;;;;;5062806;28;21028;-72
2022/11/05 17:22:55;;;;;;;12.27;9.33;;;;;;;;;;5066314;28;20563;-73
2022/11/05 17:25:45;;;;;;;9.47;8.47;;;;;;;;;;5078400;28;20454;-72
2022/11/05 17:28:36;;;;;;;9.53;6.80;;;;;;;;;;5076974;28;20993;-72
2022/11/05 17:31:26;;;;;;;9.07;7.10;;;;;;;;;;5075195;28;20465;-73
2022/11/05 17:34:16;;;;;;;7.53;6.40;;;;;;;;;;5078195;28;20454;-72
2022/11/05 17:37:06;;;;;;;7.03;6.33;;;;;;;;;;5075945;28;20460;-73
2022/11/05 17:39:57;;;;;;;7.40;6.40;;;;;;;;;;5075731;28;20883;-72
2022/11/05 17:42:47;;;;;;;8.10;6.60;;;;;;;;;;5081662;28;20469;-72
2022/11/05 17:45:44;;;;;;;7.33;6.40;;;;;;;;;;5083446;28;20931;-73
2022/11/05 17:48:32;;;;;;;11.43;7.93;;;;;;;;;;5081776;28;20953;-73
2022/11/05 17:51:24;;;;;;;7.83;7.00;;;;;;;;;;5073675;28;20481;-73
2022/11/05 17:54:14;;;;;;;8.60;7.33;;;;;;;;;;5075136;28;20472;-73
2022/11/05 17:57:04;;;;;;;7.83;7.03;;;;;;;;;;5066450;28;20466;-72
2022/11/05 17:59:52;;;;;;;7.60;6.90;;;;;;;;;;5075211;28;20635;-73
2022/11/05 18:02:44;;;;;;;12.53;7.63;;;;;;;;;;5068962;28;20469;-72
2022/11/05 18:05:35;;;;;;;9.10;7.17;;;;;;;;;;5071764;28;21450;-74
2022/11/05 18:08:23;;;;;;;8.30;7.43;;;;;;;;;;5061816;28;20460;-73
2022/11/05 18:11:12;;;;;;;8.70;6.60;;;;;;;;;;5059320;28;20491;-73
2022/11/05 18:14:02;;;;;;;7.50;6.80;;;;;;;;;;5049692;28;20458;-73
2022/11/05 18:16:51;;;;;;;9.33;7.80;;;;;;;;;;5056633;28;20590;-73
2022/11/05 18:19:42;;;;;;;9.63;8.60;;;;;;;;;;5069445;28;20496;-73
2022/11/05 18:22:31;;;;;;;10.03;8.00;;;;;;;;;;5071092;28;20501;-73
2022/11/05 18:25:19;;;;;;;10.20;8.10;;;;;;;;;;5071475;28;20472;-73
2022/11/05 18:28:09;;;;;;;8.80;7.90;;;;;;;;;;5060546;28;20497;-73
2022/11/05 18:31:01;;;;;;;10.67;8.37;;;;;;;;;;5063004;28;20556;-73
2022/11/05 18:33:56;;;;;;;9.43;8.27;;;;;;;;;;5062426;28;20509;-73
2022/11/05 18:36:46;;;;;;;9.40;7.90;;;;;;;;;;5066913;28;20560;-74
2022/11/05 18:39:43;;;;;;;10.13;8.00;;;;;;;;;;5061302;28;20538;-73
2022/11/05 18:42:31;;;;;;;9.50;7.30;;;;;;;;;;5060864;28;20990;-73
2022/11/05 18:45:20;;;;;;;9.10;8.20;;;;;;;;;;5071145;28;20462;-73
2022/11/05 18:48:18;;;;;;;10.53;7.93;;;;;;;;;;5063461;28;21097;-73
2022/11/05 18:51:10;;;;;;;8.93;7.90;;;;;;;;;;5066292;28;20489;-73
2022/11/05 18:54:00;;;;;;;11.07;8.77;;;;;;;;;;5067493;28;20511;-73
2022/11/05 18:56:49;;;;;;;8.57;7.60;;;;;;;;;;5064799;28;20458;-73
2022/11/05 18:59:37;;;;;;;14.93;8.47;;;;;;;;;;5065524;28;21106;-72
2022/11/05 19:02:27;;;;;;;11.03;8.40;;;;;;;;;;5060904;28;20478;-72
2022/11/05 19:05:17;;;;;;;9.53;8.43;;;;;;;;;;5069003;28;20513;-73
2022/11/05 19:08:21;;;;;;;10.70;9.10;;;;;;;;;;5069672;28;21543;-73
2022/11/05 19:11:10;;;;;;;9.23;8.30;;;;;;;;;;5067974;28;20490;-73
2022/11/05 19:13:59;;;;;;;10.53;8.30;;;;;;;;;;5071755;28;21282;-73
2022/11/05 19:16:48;;;;;;;10.43;8.30;;;;;;;;;;5070232;28;20529;-73
2022/11/05 19:19:36;;;;;;;9.97;8.93;;;;;;;;;;5070306;28;20469;-72
2022/11/05 19:22:26;;;;;;;8.87;8.00;;;;;;;;;;5066893;28;20485;-76
2022/11/05 19:25:15;;;;;;;8.93;8.03;;;;;;;;;;5059492;28;21172;-73
2022/11/05 19:28:03;;;;;;;8.73;7.40;;;;;;;;;;5049929;28;21039;-75
2022/11/05 19:30:52;;;;;;;7.97;7.27;;;;;;;;;;5044644;28;20478;-74
2022/11/05 19:33:41;;;;;;;9.80;7.23;;;;;;;;;;5051256;28;20445;-76
2022/11/05 19:36:29;;;;;;;7.67;6.87;;;;;;;;;;5050093;28;20962;-75
2022/11/05 19:39:19;;;;;;;8.03;7.23;;;;;;;;;;5066826;28;20485;-74
2022/11/05 19:42:08;;;;;;;11.30;7.13;;;;;;;;;;5059129;28;20485;-73
2022/11/05 19:44:56;;;;;;;7.70;6.90;;;;;;;;;;5069575;28;20458;-75
2022/11/05 19:48:04;;;;;;;11.03;7.17;;;;;;;;;;5072368;28;20465;-75
2022/11/05 19:50:53;;;;;;;7.90;6.47;;;;;;;;;;5062824;28;20487;-76
2022/11/05 19:53:41;;;;;;;7.80;6.87;;;;;;;;;;5066352;28;20457;-75
2022/11/05 19:56:32;;;;;;;7.93;7.13;;;;;;;;;;5069915;28;20453;-74
2022/11/05 19:59:21;;;;;;;8.73;7.63;;;;;;;;;;5067580;28;20500;-72
2022/11/05 20:02:12;;;;;;;10.07;7.90;;;;;;;;;;5069365;28;20565;-74
2022/11/05 20:05:04;;;;;;;8.47;7.40;;;;;;;;;;5074616;28;20457;-74
2022/11/05 20:07:52;;;;;;;8.47;7.33;;;;;;;;;;5069221;28;20453;-76
2022/11/05 20:10:41;;;;;;;8.97;7.50;;;;;;;;;;5075317;28;20479;-75
2022/11/05 20:13:31;;;;;;;8.87;7.80;;;;;;;;;;5080067;28;20460;-75
2022/11/05 20:16:20;;;;;;;8.90;7.63;;;;;;;;;;5077321;28;20470;-74
2022/11/05 20:19:10;;;;;;;9.33;7.70;;;;;;;;;;5063994;28;20967;-75
2022/11/05 20:21:59;;;;;;;9.20;8.30;;;;;;;;;;5059315;28;20476;-74
2022/11/05 20:24:48;;;;;;;9.97;7.70;;;;;;;;;;5063038;28;20457;-75
2022/11/05 20:27:36;;;;;;;10.37;8.37;;;;;;;;;;5056570;28;21043;-76
2022/11/05 20:30:26;;;;;;;12.63;8.67;;;;;;;;;;5052782;28;21489;-75
2022/11/05 20:33:16;;;;;;;10.33;9.10;;;;;;;;;;5058375;28;24056;-76
2022/11/05 20:36:17;;;;;;;9.90;8.43;;;;;;;;;;5061310;28;20469;-76
2022/11/05 20:39:07;;;;;;;10.73;9.13;;;;;;;;;;5072923;28;20661;-73
2022/11/05 20:42:01;;;;;;;13.13;9.40;;;;;;;;;;5067942;28;21329;-73
2022/11/05 20:44:52;;;;;;;11.97;9.20;;;;;;;;;;5057155;28;20454;-74
2022/11/05 20:47:42;;;;;;;11.80;10.50;;;;;;;;;;5062740;28;21273;-73
2022/11/05 20:50:31;;;;;;;11.63;10.27;;;;;;;;;;5052572;28;20500;-74
2022/11/05 20:53:24;;;;;;;10.80;9.70;;;;;;;;;;5072792;28;20445;-73
2022/11/05 20:56:20;;;;;;;11.43;9.13;;;;;;;;;;5073402;28;20465;-74
2022/11/05 20:59:23;;;;;;;12.60;9.33;;;;;;;;;;5071882;28;20468;-73
2022/11/05 21:02:25;;;;;;;11.00;9.90;;;;;;;;;;5063150;28;20593;-73
2022/11/05 21:05:18;;;;;;;13.03;9.43;;;;;;;;;;5075989;28;20526;-73
2022/11/05 21:08:10;;;;;;;10.70;9.70;;;;;;;;;;5082863;28;20966;-73
2022/11/05 21:11:02;;;;;;;15.70;10.70;;;;;;;;;;5081840;28;20465;-73
2022/11/05 21:13:51;;;;;;;11.33;10.13;;;;;;;;;;5077454;28;20614;-72
2022/11/05 21:16:39;;;;;;;10.40;9.40;;;;;;;;;;5075149;28;20476;-73
2022/11/05 21:19:30;;;;;;;13.07;10.30;;;;;;;;;;5073185;28;20470;-73
2022/11/05 21:22:22;;;;;;;10.30;9.40;;;;;;;;;;5074763;28;20474;-73
2022/11/05 21:25:15;;;;;;;11.00;9.47;;;;;;;;;;5072374;28;20540;-73
2022/11/05 21:28:05;;;;;;;10.90;9.90;;;;;;;;;;5073288;28;20874;-72
2022/11/05 21:31:00;;;;;;;11.20;8.77;;;;;;;;;;5077907;28;20481;-73
2022/11/05 21:33:53;;;;;;;12.50;8.73;;;;;;;;;;5064502;28;20458;-74
2022/11/05 21:36:46;;;;;;;10.10;9.10;;;;;;;;;;5058838;28;20486;-73
2022/11/05 21:39:41;;;;;;;10.50;9.40;;;;;;;;;;5064628;28;20470;-73
2022/11/05 21:42:30;;;;;;;10.60;8.33;;;;;;;;;;5071152;28;20473;-72
2022/11/05 21:45:21;;;;;;;12.00;9.40;;;;;;;;;;5072210;28;20480;-72
2022/11/05 21:48:13;;;;;;;11.07;9.60;;;;;;;;;;5066292;28;20452;-74
2022/11/05 22:00:39;;;;;;;9.63;8.57;;;;;;;;;;5065522;28;20466;-73
2022/11/05 22:03:30;;;;;;;12.13;8.83;;;;;;;;;;5065818;28;20553;-73
2022/11/05 22:06:18;;;;;;;9.83;8.77;;;;;;;;;;5061107;28;20457;-73
2022/11/05 22:09:07;;;;;;;9.80;8.80;;;;;;;;;;5068488;28;20838;-73
2022/11/05 22:12:00;;;;;;;9.03;8.17;;;;;;;;;;5069942;28;20496;-73
2022/11/05 22:14:51;;;;;;;11.90;8.73;;;;;;;;;;5067734;28;20570;-73
2022/11/05 22:17:40;;;;;;;9.83;8.83;;;;;;;;;;5062013;28;20527;-73
2022/11/05 22:20:34;;;;;;;11.70;8.77;;;;;;;;;;5059146;28;20490;-74
2022/11/05 22:23:25;;;;;;;8.77;7.90;;;;;;;;;;5076747;28;20481;-73
2022/11/05 22:26:15;;;;;;;9.63;8.63;;;;;;;;;;5070143;28;20587;-73
2022/11/05 22:29:05;;;;;;;9.20;7.50;;;;;;;;;;5066045;28;20905;-73
2022/11/05 22:31:57;;;;;;;10.10;8.03;;;;;;;;;;5061759;28;20482;-73
2022/11/05 22:34:47;;;;;;;9.93;7.80;;;;;;;;;;5064693;28;20488;-73
2022/11/05 22:37:43;;;;;;;7.53;6.73;;;;;;;;;;5060057;28;20601;-73
2022/11/05 22:40:33;;;;;;;8.27;7.43;;;;;;;;;;5068437;28;21039;-73
2022/11/05 22:43:22;;;;;;;7.10;6.60;;;;;;;;;;5059851;28;20472;-73
2022/11/05 22:46:16;;;;;;;9.37;8.37;;;;;;;;;;5066559;28;20457;-73
2022/11/05 22:49:08;;;;;;;7.97;7.20;;;;;;;;;;5065514;28;20525;-73
2022/11/05 22:51:58;;;;;;;10.00;7.27;;;;;;;;;;5060408;28;20565;-73